createdAt,value
2023-05-09T00:00:09.957Z,74.1586
2023-05-09T00:01:11.816Z,74.3422
2023-05-09T00:02:14.529Z,74.8950
2023-05-09T00:03:16.793Z,75.9310
2023-05-09T00:04:19.277Z,76.3348
2023-05-09T00:05:21.245Z,75.7416
2023-05-09T00:06:23.892Z,75.0824
2023-05-09T00:07:25.814Z,74.7562
2023-05-09T00:08:28.144Z,74.5744
2023-05-09T00:09:30.539Z,74.4785
2023-05-09T00:10:32.847Z,74.4213
2023-05-09T00:11:35.199Z,74.5110
2023-05-09T00:12:37.503Z,74.3390
2023-05-09T00:13:39.870Z,74.1686
2023-05-09T00:14:42.179Z,74.4845
2023-05-09T00:15:44.619Z,74.2171
2023-05-09T00:16:46.901Z,74.3576
2023-05-09T00:17:49.225Z,74.1659
2023-05-09T00:18:51.500Z,74.4738
2023-05-09T00:19:53.983Z,74.6540
2023-05-09T00:20:56.271Z,74.3123
2023-05-09T00:21:58.606Z,74.0515
2023-05-09T00:23:00.919Z,74.0592
2023-05-09T00:24:03.184Z,74.6099
2023-05-09T00:25:05.627Z,75.1169
2023-05-09T00:26:07.878Z,74.9743
2023-05-09T00:27:10.241Z,75.1019
2023-05-09T00:28:12.533Z,75.2327
2023-05-09T00:29:14.949Z,75.0621
2023-05-09T00:30:17.596Z,74.6351
2023-05-09T00:31:19.533Z,73.8808
2023-05-09T00:32:21.896Z,73.6987
2023-05-09T00:33:24.355Z,74.2322
2023-05-09T00:34:26.752Z,74.2087
2023-05-09T00:35:28.889Z,73.8212
2023-05-09T00:36:31.566Z,74.5360
2023-05-09T00:37:33.583Z,74.4333
2023-05-09T00:38:36.000Z,74.2171
2023-05-09T00:39:38.472Z,74.2236
2023-05-09T00:40:41.639Z,74.3293
2023-05-09T00:41:42.910Z,74.8072
2023-05-09T00:42:45.264Z,74.8019
2023-05-09T00:43:47.849Z,74.5752
2023-05-09T00:44:50.260Z,74.1047
2023-05-09T00:45:52.567Z,74.5973
2023-05-09T00:46:54.735Z,75.3952
2023-05-09T00:47:57.128Z,74.9597
2023-05-09T00:48:59.272Z,74.4595
2023-05-09T00:50:02.089Z,74.2107
2023-05-09T00:51:03.950Z,73.8675
2023-05-09T00:52:06.337Z,73.8562
2023-05-09T00:53:08.887Z,73.7768
2023-05-09T00:54:10.968Z,73.7048
2023-05-09T00:55:13.756Z,73.7829
2023-05-09T00:56:15.919Z,73.9457
2023-05-09T00:57:17.948Z,74.1058
2023-05-09T00:58:20.713Z,74.0981
2023-05-09T00:59:23.285Z,74.4551
2023-05-09T01:00:25.024Z,74.5964
2023-05-09T01:01:27.345Z,74.6582
2023-05-09T01:02:29.857Z,74.4891
2023-05-09T01:03:32.116Z,74.3889
2023-05-09T01:04:34.290Z,74.6199
2023-05-09T01:05:36.672Z,75.0691
2023-05-09T01:06:39.251Z,75.2151
2023-05-09T01:07:41.415Z,75.6693
2023-05-09T01:08:43.726Z,75.0214
2023-05-09T01:09:45.977Z,74.8197
2023-05-09T01:10:48.447Z,74.7502
2023-05-09T01:11:50.712Z,74.6100
2023-05-09T01:12:53.048Z,74.6994
2023-05-09T01:13:55.603Z,74.5597
2023-05-09T01:14:57.691Z,74.3245
2023-05-09T01:16:00.411Z,73.9014
2023-05-09T01:17:02.574Z,74.0499
2023-05-09T01:18:05.257Z,74.4096
2023-05-09T01:19:07.680Z,75.0234
2023-05-09T01:20:09.373Z,74.5542
2023-05-09T01:21:11.778Z,74.5736
2023-05-09T01:22:14.231Z,74.0047
2023-05-09T01:23:17.273Z,74.0153
2023-05-09T01:24:19.839Z,74.0476
2023-05-09T01:25:21.334Z,74.0115
2023-05-09T01:26:23.686Z,73.9900
2023-05-09T01:27:26.430Z,74.0673
2023-05-09T01:28:28.096Z,73.9241
2023-05-09T01:29:30.395Z,73.9911
2023-05-09T01:30:33.527Z,73.9927
2023-05-09T01:31:36.737Z,74.1727
2023-05-09T01:32:37.866Z,74.4911
2023-05-09T01:33:39.795Z,74.5071
2023-05-09T01:34:42.086Z,74.1431
2023-05-09T01:35:44.410Z,74.0225
2023-05-09T01:36:46.746Z,73.8328
2023-05-09T01:37:49.249Z,73.9204
2023-05-09T01:38:51.553Z,74.1754
2023-05-09T01:39:54.128Z,74.3374
2023-05-09T01:40:56.220Z,74.1928
2023-05-09T01:41:58.423Z,74.1233
2023-05-09T01:43:00.819Z,74.4609
2023-05-09T01:44:03.328Z,74.5192
2023-05-09T01:45:05.440Z,74.3150
2023-05-09T01:46:07.877Z,74.1550
2023-05-09T01:47:10.138Z,74.0438
2023-05-09T01:48:12.462Z,74.2231
2023-05-09T01:49:14.802Z,74.3027
2023-05-09T01:50:17.379Z,74.1809
2023-05-09T01:51:19.622Z,74.6674
2023-05-09T01:52:21.784Z,74.7467
2023-05-09T01:53:24.216Z,75.1597
2023-05-09T01:54:26.935Z,75.2666
2023-05-09T01:55:28.804Z,75.3015
2023-05-09T01:56:31.210Z,75.1233
2023-05-09T01:57:33.508Z,75.3482
2023-05-09T01:58:36.312Z,75.2429
2023-05-09T01:59:38.233Z,75.5060
2023-05-09T02:00:40.570Z,75.2482
2023-05-09T02:01:42.886Z,75.2309
2023-05-09T02:02:45.390Z,75.1439
2023-05-09T02:03:47.573Z,75.0829
2023-05-09T02:04:49.873Z,75.4213
2023-05-09T02:05:52.250Z,75.4233
2023-05-09T02:06:54.578Z,75.6911
2023-05-09T02:07:56.962Z,75.6878
2023-05-09T02:08:59.200Z,75.8985
2023-05-09T02:10:01.653Z,76.1401
2023-05-09T02:11:03.893Z,75.8639
2023-05-09T02:12:06.234Z,76.2474
2023-05-09T02:13:08.577Z,75.6916
2023-05-09T02:14:11.045Z,75.5714
2023-05-09T02:15:13.390Z,76.4388
2023-05-09T02:16:15.932Z,76.0924
2023-05-09T02:17:18.222Z,75.7640
2023-05-09T02:18:20.292Z,75.7191
2023-05-09T02:19:22.612Z,75.3927
2023-05-09T02:20:24.910Z,74.8826
2023-05-09T02:21:29.120Z,74.4331
2023-05-09T02:22:29.696Z,74.3001
2023-05-09T02:23:31.951Z,74.4733
2023-05-09T02:24:34.350Z,74.9409
2023-05-09T02:25:36.655Z,74.6356
2023-05-09T02:26:39.543Z,74.5308
2023-05-09T02:27:41.317Z,74.5855
2023-05-09T02:28:43.657Z,74.7068
2023-05-09T02:29:45.963Z,74.8114
2023-05-09T02:30:48.397Z,74.7494
2023-05-09T02:31:50.758Z,74.7372
2023-05-09T02:32:53.081Z,74.7367
2023-05-09T02:33:55.515Z,74.9940
2023-05-09T02:34:57.620Z,75.2477
2023-05-09T02:36:00.206Z,75.3274
2023-05-09T02:37:02.451Z,75.6159
2023-05-09T02:38:04.631Z,75.2599
2023-05-09T02:39:07.321Z,74.7658
2023-05-09T02:40:09.885Z,75.2281
2023-05-09T02:41:11.705Z,75.4428
2023-05-09T02:42:14.026Z,75.3139
2023-05-09T02:43:16.746Z,76.0466
2023-05-09T02:44:18.673Z,76.6430
2023-05-09T02:45:21.027Z,76.4492
2023-05-09T02:46:23.750Z,76.0063
2023-05-09T02:47:25.694Z,75.3447
2023-05-09T02:48:28.036Z,74.9854
2023-05-09T02:49:32.426Z,74.7584
2023-05-09T02:50:32.751Z,74.6440
2023-05-09T02:51:35.219Z,74.7892
2023-05-09T02:52:37.437Z,74.8736
2023-05-09T02:53:39.794Z,75.1667
2023-05-09T02:54:42.098Z,75.2876
2023-05-09T02:55:44.408Z,75.2828
2023-05-09T02:56:46.830Z,75.0745
2023-05-09T02:57:51.994Z,74.9783
2023-05-09T02:58:51.567Z,75.0033
2023-05-09T02:59:53.854Z,75.0159
2023-05-09T03:00:56.114Z,75.3486
2023-05-09T03:01:58.434Z,75.4951
2023-05-09T03:03:00.859Z,75.2532
2023-05-09T03:04:03.079Z,75.0894
2023-05-09T03:05:05.410Z,75.0371
2023-05-09T03:06:07.771Z,75.1344
2023-05-09T03:07:10.088Z,75.2154
2023-05-09T03:08:12.412Z,75.2345
2023-05-09T03:09:14.809Z,75.2878
2023-05-09T03:10:17.301Z,75.2661
2023-05-09T03:11:19.564Z,75.2967
2023-05-09T03:12:21.852Z,75.4367
2023-05-09T03:13:24.202Z,75.4480
2023-05-09T03:14:26.539Z,75.1825
2023-05-09T03:15:28.775Z,74.7054
2023-05-09T03:16:31.187Z,74.7236
2023-05-09T03:17:33.476Z,74.3519
2023-05-09T03:18:35.759Z,73.8544
2023-05-09T03:19:38.121Z,73.2733
2023-05-09T03:20:40.464Z,72.7873
2023-05-09T03:21:42.881Z,72.5975
2023-05-09T03:22:45.125Z,73.0955
2023-05-09T03:23:47.501Z,73.8541
2023-05-09T03:24:49.801Z,74.2193
2023-05-09T03:25:52.112Z,73.7157
2023-05-09T03:26:54.461Z,73.1444
2023-05-09T03:27:56.880Z,72.4201
2023-05-09T03:28:59.135Z,72.8355
2023-05-09T03:30:01.454Z,73.7535
2023-05-09T03:31:03.949Z,73.6177
2023-05-09T03:32:06.236Z,73.2011
2023-05-09T03:33:08.526Z,73.3069
2023-05-09T03:34:10.794Z,73.5204
2023-05-09T03:35:13.476Z,74.0997
2023-05-09T03:36:15.484Z,74.5828
2023-05-09T03:37:17.817Z,74.9292
2023-05-09T03:38:20.132Z,75.1431
2023-05-09T03:39:22.471Z,75.3431
2023-05-09T03:40:24.971Z,75.5824
2023-05-09T03:41:27.145Z,75.6126
2023-05-09T03:42:29.509Z,75.6128
2023-05-09T03:43:31.919Z,75.6377
2023-05-09T03:44:34.151Z,75.7105
2023-05-09T03:45:36.609Z,75.7935
2023-05-09T03:46:38.896Z,75.8874
2023-05-09T03:47:41.217Z,75.9660
2023-05-09T03:48:43.511Z,76.0290
2023-05-09T03:49:45.847Z,76.1350
2023-05-09T03:50:48.203Z,76.3457
2023-05-09T03:51:50.548Z,76.5279
2023-05-09T03:52:52.843Z,76.4731
2023-05-09T03:53:55.434Z,76.5546
2023-05-09T03:54:57.752Z,76.4960
2023-05-09T03:55:59.871Z,76.3794
2023-05-09T03:57:02.249Z,76.4239
2023-05-09T03:58:04.597Z,76.3762
2023-05-09T03:59:06.950Z,76.2496
2023-05-09T04:00:09.426Z,76.1019
2023-05-09T04:01:11.681Z,76.0874
2023-05-09T04:02:14.840Z,76.0858
2023-05-09T04:03:16.252Z,76.2002
2023-05-09T04:04:19.587Z,76.3748
2023-05-09T04:05:20.879Z,76.3610
2023-05-09T04:06:23.200Z,76.3320
2023-05-09T04:07:25.555Z,76.3097
2023-05-09T04:08:27.881Z,76.3424
2023-05-09T04:09:30.338Z,76.4178
2023-05-09T04:10:32.536Z,76.4240
2023-05-09T04:11:35.250Z,76.3482
2023-05-09T04:12:37.227Z,76.4161
2023-05-09T04:13:39.728Z,76.6005
2023-05-09T04:14:41.980Z,76.5635
2023-05-09T04:15:44.229Z,76.3559
2023-05-09T04:16:46.584Z,76.3430
2023-05-09T04:17:51.305Z,76.4845
2023-05-09T04:18:51.226Z,76.4048
2023-05-09T04:19:53.570Z,76.4264
2023-05-09T04:20:55.894Z,76.3137
2023-05-09T04:21:58.230Z,76.2152
2023-05-09T04:23:00.628Z,76.3288
2023-05-09T04:24:02.908Z,76.4618
2023-05-09T04:25:05.299Z,76.4964
2023-05-09T04:26:07.617Z,76.3434
2023-05-09T04:27:09.947Z,76.5030
2023-05-09T04:28:12.259Z,76.6645
2023-05-09T04:29:14.643Z,76.4594
2023-05-09T04:30:17.046Z,76.5630
2023-05-09T04:31:19.402Z,76.3752
2023-05-09T04:32:21.603Z,76.2190
2023-05-09T04:33:23.960Z,76.1478
2023-05-09T04:34:26.292Z,76.1638
2023-05-09T04:35:28.660Z,76.2648
2023-05-09T04:36:30.966Z,76.1467
2023-05-09T04:37:33.306Z,76.0733
2023-05-09T04:38:35.657Z,76.1290
2023-05-09T04:39:37.973Z,76.1499
2023-05-09T04:40:40.324Z,76.2690
2023-05-09T04:41:42.649Z,76.3399
2023-05-09T04:42:45.024Z,76.1457
2023-05-09T04:43:47.297Z,76.3440
2023-05-09T04:44:49.658Z,76.4851
2023-05-09T04:45:52.066Z,76.5442
2023-05-09T04:46:54.280Z,76.4412
2023-05-09T04:47:56.691Z,76.2798
2023-05-09T04:48:59.682Z,75.8371
2023-05-09T04:50:01.314Z,75.6172
2023-05-09T04:51:03.641Z,75.4935
2023-05-09T04:52:06.003Z,75.3839
2023-05-09T04:53:08.316Z,75.1766
2023-05-09T04:54:10.651Z,75.2894
2023-05-09T04:55:13.260Z,75.6588
2023-05-09T04:56:15.329Z,75.5184
2023-05-09T04:57:18.844Z,75.3443
2023-05-09T04:58:19.999Z,75.5330
2023-05-09T04:59:22.327Z,75.6287
2023-05-09T05:00:24.712Z,75.7403
2023-05-09T05:01:27.120Z,75.5829
2023-05-09T05:02:29.358Z,75.3084
2023-05-09T05:03:31.671Z,75.5026
2023-05-09T05:04:34.061Z,75.5889
2023-05-09T05:05:37.412Z,75.4467
2023-05-09T05:06:38.685Z,75.2677
2023-05-09T05:07:41.033Z,75.3061
2023-05-09T05:08:43.359Z,75.0601
2023-05-09T05:09:45.779Z,74.9495
2023-05-09T05:10:48.246Z,74.9477
2023-05-09T05:11:59.448Z,75.0968
2023-05-09T05:12:52.740Z,74.8249
2023-05-09T05:13:55.043Z,74.4733
2023-05-09T05:14:57.388Z,74.0908
2023-05-09T05:15:59.783Z,73.8250
2023-05-09T05:17:02.136Z,73.7790
2023-05-09T05:18:04.410Z,74.0800
2023-05-09T05:19:06.733Z,74.3134
2023-05-09T05:20:09.065Z,74.4298
2023-05-09T05:21:11.413Z,74.4771
2023-05-09T05:22:13.732Z,74.5630
2023-05-09T05:23:16.061Z,74.6448
2023-05-09T05:24:18.396Z,74.5096
2023-05-09T05:25:20.743Z,74.4718
2023-05-09T05:26:23.084Z,74.3819
2023-05-09T05:27:25.396Z,74.2772
2023-05-09T05:28:27.738Z,73.7469
2023-05-09T05:29:30.067Z,73.9231
2023-05-09T05:30:34.141Z,74.0379
2023-05-09T05:31:34.803Z,73.6214
2023-05-09T05:32:37.173Z,73.7217
2023-05-09T05:33:39.419Z,73.2948
2023-05-09T05:34:41.734Z,73.0122
2023-05-09T05:35:44.086Z,72.9754
2023-05-09T05:36:46.432Z,73.4272
2023-05-09T05:37:49.217Z,73.6346
2023-05-09T05:38:51.092Z,73.7825
2023-05-09T05:39:53.429Z,73.7436
2023-05-09T05:40:55.778Z,74.0934
2023-05-09T05:41:58.487Z,74.4200
2023-05-09T05:43:00.459Z,74.2104
2023-05-09T05:44:02.773Z,74.5504
2023-05-09T05:45:05.144Z,74.7407
2023-05-09T05:46:07.523Z,74.7785
2023-05-09T05:47:09.788Z,74.9599
2023-05-09T05:48:12.234Z,74.3486
2023-05-09T05:49:14.465Z,74.4325
2023-05-09T05:50:16.794Z,74.6072
2023-05-09T05:51:19.122Z,74.9069
2023-05-09T05:52:21.460Z,75.6276
2023-05-09T05:53:23.784Z,76.0698
2023-05-09T05:54:26.122Z,75.8877
2023-05-09T05:55:28.480Z,76.0425
2023-05-09T05:56:30.788Z,76.5457
2023-05-09T05:57:33.119Z,76.7962
2023-05-09T05:58:35.449Z,76.6672
2023-05-09T05:59:37.770Z,76.7821
2023-05-09T06:00:40.136Z,77.0859
2023-05-09T06:01:42.482Z,77.3371
2023-05-09T06:02:44.878Z,77.3439
2023-05-09T06:03:47.355Z,77.1175
2023-05-09T06:04:49.449Z,76.8360
2023-05-09T06:05:51.821Z,77.0220
2023-05-09T06:06:54.114Z,76.8262
2023-05-09T06:07:56.519Z,77.2872
2023-05-09T06:08:58.785Z,76.8181
2023-05-09T06:10:01.110Z,76.7895
2023-05-09T06:11:03.506Z,76.3570
2023-05-09T06:12:05.964Z,76.1463
2023-05-09T06:13:08.141Z,75.9611
2023-05-09T06:14:10.462Z,76.0395
2023-05-09T06:15:13.107Z,75.5357
2023-05-09T06:16:19.679Z,75.3634
2023-05-09T06:17:18.440Z,75.1359
2023-05-09T06:18:19.792Z,75.1703
2023-05-09T06:19:22.175Z,75.1947
2023-05-09T06:20:24.458Z,75.6720
2023-05-09T06:21:26.869Z,75.4780
2023-05-09T06:22:29.147Z,75.2209
2023-05-09T06:23:31.475Z,75.1305
2023-05-09T06:24:36.343Z,74.7495
2023-05-09T06:25:36.192Z,74.2110
2023-05-09T06:26:38.497Z,73.6310
2023-05-09T06:27:40.821Z,73.1993
2023-05-09T06:28:43.166Z,73.2373
2023-05-09T06:29:45.500Z,73.3157
2023-05-09T06:30:47.837Z,73.4006
2023-05-09T06:31:50.553Z,73.1032
2023-05-09T06:32:52.595Z,73.4989
2023-05-09T06:33:54.831Z,73.7342
2023-05-09T06:34:57.250Z,72.7437
2023-05-09T06:35:59.511Z,72.6444
2023-05-09T06:37:01.868Z,73.5273
2023-05-09T06:38:04.179Z,73.2156
2023-05-09T06:39:06.536Z,73.0415
2023-05-09T06:40:08.888Z,73.1913
2023-05-09T06:41:11.194Z,72.7474
2023-05-09T06:42:13.537Z,72.4719
2023-05-09T06:43:15.859Z,72.0264
2023-05-09T06:44:18.190Z,71.5509
2023-05-09T06:45:20.763Z,71.2832
2023-05-09T06:46:22.975Z,71.6482
2023-05-09T06:47:25.249Z,72.2307
2023-05-09T06:48:27.527Z,71.9331
2023-05-09T06:49:29.875Z,71.7384
2023-05-09T06:50:33.016Z,71.4811
2023-05-09T06:51:34.546Z,71.1778
2023-05-09T06:52:36.878Z,71.1964
2023-05-09T06:53:39.209Z,71.9107
2023-05-09T06:54:41.586Z,72.0785
2023-05-09T06:55:43.936Z,72.0216
2023-05-09T06:56:46.270Z,72.2514
2023-05-09T06:57:48.611Z,73.2296
2023-05-09T06:58:50.944Z,73.7408
2023-05-09T06:59:53.272Z,73.5247
2023-05-09T07:00:55.619Z,73.9785
2023-05-09T07:01:58.129Z,75.8756
2023-05-09T07:03:00.345Z,75.8335
2023-05-09T07:04:02.619Z,75.7802
2023-05-09T07:05:04.989Z,75.6634
2023-05-09T07:06:07.385Z,75.0113
2023-05-09T07:07:09.640Z,75.5610
2023-05-09T07:08:11.976Z,75.4862
2023-05-09T07:09:14.304Z,75.9263
2023-05-09T07:10:16.638Z,76.5151
2023-05-09T07:11:18.984Z,76.1789
2023-05-09T07:12:21.305Z,76.4645
2023-05-09T07:13:23.743Z,77.2502
2023-05-09T07:14:25.970Z,75.8371
2023-05-09T07:15:40.602Z,74.9465
2023-05-09T07:16:30.692Z,75.0942
2023-05-09T07:17:33.009Z,74.7034
2023-05-09T07:18:35.321Z,74.0096
2023-05-09T07:19:37.662Z,74.5343
2023-05-09T07:20:39.982Z,74.7036
2023-05-09T07:21:42.415Z,73.4688
2023-05-09T07:22:44.735Z,74.2249
2023-05-09T07:23:47.005Z,74.1201
2023-05-09T07:24:49.318Z,73.2662
2023-05-09T07:25:51.657Z,73.5438
2023-05-09T07:26:53.996Z,73.8917
2023-05-09T07:27:56.339Z,74.2449
2023-05-09T07:28:58.671Z,73.5228
2023-05-09T07:30:01.000Z,72.8076
2023-05-09T07:31:03.337Z,72.6328
2023-05-09T07:32:05.708Z,73.4049
2023-05-09T07:33:08.240Z,74.3035
2023-05-09T07:34:10.368Z,74.8052
2023-05-09T07:35:12.985Z,73.4234
2023-05-09T07:36:15.013Z,73.0932
2023-05-09T07:37:17.492Z,72.2479
2023-05-09T07:38:19.698Z,72.0170
2023-05-09T07:39:22.064Z,71.4467
2023-05-09T07:40:24.368Z,71.6165
2023-05-09T07:41:26.843Z,72.4424
2023-05-09T07:42:29.044Z,72.2844
2023-05-09T07:43:31.372Z,72.0076
2023-05-09T07:44:33.725Z,70.9968
2023-05-09T07:45:36.043Z,70.2087
2023-05-09T07:46:38.402Z,69.8334
2023-05-09T07:47:40.759Z,69.0376
2023-05-09T07:48:43.070Z,68.9311
2023-05-09T07:49:45.417Z,68.4802
2023-05-09T07:50:47.740Z,68.0327
2023-05-09T07:51:50.092Z,68.2581
2023-05-09T07:52:52.530Z,68.1306
2023-05-09T07:53:54.755Z,68.3567
2023-05-09T07:54:57.114Z,67.8206
2023-05-09T07:55:59.437Z,69.0525
2023-05-09T07:57:01.776Z,68.5358
2023-05-09T07:58:04.100Z,66.5494
2023-05-09T07:59:06.458Z,66.4381
2023-05-09T08:00:08.813Z,65.8837
2023-05-09T08:01:11.148Z,65.2901
2023-05-09T08:02:13.503Z,65.1598
2023-05-09T08:03:16.032Z,66.4039
2023-05-09T08:04:18.181Z,67.1364
2023-05-09T08:05:20.975Z,67.1106
2023-05-09T08:06:22.849Z,67.7420
2023-05-09T08:07:25.169Z,67.5678
2023-05-09T08:08:27.529Z,66.8911
2023-05-09T08:09:29.864Z,65.5634
2023-05-09T08:10:32.329Z,65.2252
2023-05-09T08:11:34.553Z,66.6355
2023-05-09T08:12:36.895Z,65.8259
2023-05-09T08:13:39.346Z,65.4353
2023-05-09T08:14:41.556Z,64.1434
2023-05-09T08:15:43.922Z,63.5749
2023-05-09T08:16:46.248Z,63.1374
2023-05-09T08:17:48.705Z,63.5695
2023-05-09T08:18:50.925Z,63.1106
2023-05-09T08:19:53.285Z,63.6639
2023-05-09T08:20:55.596Z,63.0304
2023-05-09T08:21:57.962Z,62.6582
2023-05-09T08:23:00.303Z,61.9672
2023-05-09T08:24:02.739Z,62.2787
2023-05-09T08:25:04.970Z,61.3700
2023-05-09T08:26:07.307Z,61.1804
2023-05-09T08:27:09.661Z,59.8663
2023-05-09T08:28:12.014Z,59.1955
2023-05-09T08:29:14.337Z,59.2511
2023-05-09T08:30:16.748Z,58.3674
2023-05-09T08:31:19.060Z,58.4825
2023-05-09T08:32:21.387Z,58.3706
2023-05-09T08:33:23.749Z,58.6157
2023-05-09T08:34:26.058Z,58.9984
2023-05-09T08:35:28.401Z,59.8646
2023-05-09T08:36:30.758Z,60.6000
2023-05-09T08:37:33.088Z,59.7067
2023-05-09T08:38:35.487Z,58.9866
2023-05-09T08:39:37.869Z,57.6260
2023-05-09T08:40:40.127Z,57.4163
2023-05-09T08:41:42.525Z,56.8336
2023-05-09T08:42:44.863Z,55.7172
2023-05-09T08:43:47.210Z,55.7037
2023-05-09T08:44:49.507Z,56.9981
2023-05-09T08:45:51.872Z,56.7220
2023-05-09T08:46:54.303Z,57.2445
2023-05-09T08:47:56.558Z,55.9793
2023-05-09T08:48:58.930Z,55.9594
2023-05-09T08:50:01.230Z,55.4467
2023-05-09T08:51:03.581Z,55.7436
2023-05-09T08:52:05.986Z,56.4524
2023-05-09T08:53:08.280Z,57.8325
2023-05-09T08:54:10.655Z,56.8830
2023-05-09T08:55:13.096Z,55.7891
2023-05-09T08:56:15.298Z,55.7315
2023-05-09T08:57:17.664Z,56.4171
2023-05-09T08:58:20.005Z,56.6373
2023-05-09T08:59:22.396Z,57.3044
2023-05-09T09:00:24.760Z,57.3137
2023-05-09T09:01:27.102Z,56.4088
2023-05-09T09:02:29.429Z,55.8665
2023-05-09T09:03:31.717Z,56.3578
2023-05-09T09:04:34.134Z,55.6377
2023-05-09T09:05:41.964Z,55.7957
2023-05-09T09:06:38.795Z,55.1691
2023-05-09T09:07:41.103Z,56.2602
2023-05-09T09:08:43.464Z,54.9289
2023-05-09T09:09:45.813Z,55.3483
2023-05-09T09:10:48.254Z,55.7884
2023-05-09T09:11:50.479Z,54.9541
2023-05-09T09:12:52.848Z,55.8527
2023-05-09T09:13:55.191Z,55.7185
2023-05-09T09:14:57.531Z,55.5714
2023-05-09T09:16:00.141Z,55.7830
2023-05-09T09:17:02.209Z,55.8189
2023-05-09T09:18:07.535Z,55.4348
2023-05-09T09:19:06.899Z,54.9527
2023-05-09T09:20:09.268Z,55.7580
2023-05-09T09:21:11.729Z,56.3109
2023-05-09T09:22:13.965Z,57.0957
2023-05-09T09:23:16.278Z,56.6026
2023-05-09T09:24:18.641Z,56.4988
2023-05-09T09:25:20.995Z,55.4312
2023-05-09T09:26:23.425Z,54.1935
2023-05-09T09:27:25.676Z,53.4875
2023-05-09T09:28:28.030Z,54.1155
2023-05-09T09:29:30.383Z,53.5872
2023-05-09T09:30:32.714Z,53.3978
2023-05-09T09:31:35.100Z,54.1389
2023-05-09T09:32:37.487Z,52.5997
2023-05-09T09:33:39.759Z,52.8554
2023-05-09T09:34:42.155Z,53.4950
2023-05-09T09:35:44.453Z,53.7050
2023-05-09T09:36:46.815Z,54.0840
2023-05-09T09:37:49.154Z,53.3389
2023-05-09T09:38:51.493Z,55.0625
2023-05-09T09:39:53.866Z,53.6660
2023-05-09T09:40:56.242Z,52.3017
2023-05-09T09:41:58.625Z,52.6789
2023-05-09T09:43:00.882Z,53.6434
2023-05-09T09:44:03.233Z,52.9792
2023-05-09T09:45:05.589Z,52.2248
2023-05-09T09:46:07.934Z,52.7289
2023-05-09T09:47:10.272Z,52.9750
2023-05-09T09:48:12.685Z,53.1025
2023-05-09T09:49:15.007Z,51.4679
2023-05-09T09:50:17.463Z,51.6927
2023-05-09T09:51:19.667Z,51.9801
2023-05-09T09:52:22.022Z,52.1061
2023-05-09T09:53:24.367Z,51.9098
2023-05-09T09:54:26.740Z,51.4545
2023-05-09T09:55:29.088Z,50.5161
2023-05-09T09:56:31.428Z,50.2824
2023-05-09T09:57:33.863Z,50.3464
2023-05-09T09:58:36.121Z,50.8308
2023-05-09T09:59:38.521Z,51.5094
2023-05-09T10:00:40.866Z,51.3035
2023-05-09T10:01:43.244Z,50.8558
2023-05-09T10:02:45.557Z,50.2608
2023-05-09T10:03:47.956Z,50.8255
2023-05-09T10:04:50.247Z,51.2754
2023-05-09T10:05:52.582Z,51.9269
2023-05-09T10:06:54.958Z,50.7955
2023-05-09T10:07:57.275Z,49.4625
2023-05-09T10:08:59.645Z,48.8968
2023-05-09T10:10:02.039Z,49.3366
2023-05-09T10:11:04.340Z,49.0902
2023-05-09T10:12:06.703Z,50.2424
2023-05-09T10:13:09.158Z,51.5676
2023-05-09T10:14:11.383Z,51.4657
2023-05-09T10:15:13.756Z,51.0404
2023-05-09T10:16:16.193Z,50.8776
2023-05-09T10:17:18.507Z,49.7861
2023-05-09T10:18:20.970Z,48.8364
2023-05-09T10:19:23.134Z,49.6975
2023-05-09T10:20:25.529Z,48.2560
2023-05-09T10:21:27.827Z,47.4116
2023-05-09T10:22:30.173Z,47.7901
2023-05-09T10:23:32.546Z,48.2609
2023-05-09T10:24:34.908Z,49.3458
2023-05-09T10:25:37.263Z,50.9155
2023-05-09T10:26:39.577Z,51.0348
2023-05-09T10:27:41.942Z,50.1944
2023-05-09T10:28:44.378Z,49.4239
2023-05-09T10:29:46.665Z,50.4028
2023-05-09T10:30:49.030Z,50.2018
2023-05-09T10:31:51.466Z,50.4342
2023-05-09T10:32:53.722Z,50.3782
2023-05-09T10:33:56.079Z,50.6290
2023-05-09T10:34:58.393Z,50.3312
2023-05-09T10:36:00.755Z,50.0426
2023-05-09T10:37:03.118Z,49.5948
2023-05-09T10:38:05.462Z,49.0496
2023-05-09T10:39:07.798Z,48.8094
2023-05-09T10:40:10.149Z,49.0531
2023-05-09T10:41:12.496Z,50.0060
2023-05-09T10:42:14.864Z,48.2067
2023-05-09T10:43:17.216Z,48.6015
2023-05-09T10:44:19.659Z,49.9193
2023-05-09T10:45:21.893Z,50.0532
2023-05-09T10:46:24.363Z,49.5937
2023-05-09T10:47:51.445Z,49.4860
2023-05-09T10:48:28.999Z,49.6065
2023-05-09T10:49:31.351Z,48.8721
2023-05-09T10:50:33.702Z,48.5514
2023-05-09T10:51:36.036Z,48.4552
2023-05-09T10:52:38.366Z,48.0907
2023-05-09T10:53:40.749Z,48.0467
2023-05-09T10:54:43.488Z,48.4023
2023-05-09T10:55:45.428Z,50.1183
2023-05-09T10:56:47.772Z,49.9945
2023-05-09T10:57:50.130Z,49.3687
2023-05-09T10:58:52.480Z,46.9818
2023-05-09T10:59:55.009Z,46.6498
2023-05-09T11:00:57.445Z,47.5604
2023-05-09T11:01:59.712Z,48.5991
2023-05-09T11:03:02.095Z,47.5648
2023-05-09T11:04:04.341Z,47.8240
2023-05-09T11:05:06.690Z,47.9144
2023-05-09T11:06:08.999Z,48.6023
2023-05-09T11:07:11.376Z,49.6051
2023-05-09T11:08:13.717Z,48.7804
2023-05-09T11:09:16.074Z,48.7648
2023-05-09T11:10:18.523Z,49.7775
2023-05-09T11:11:20.769Z,49.0256
2023-05-09T11:12:23.123Z,48.6998
2023-05-09T11:13:25.536Z,48.6515
2023-05-09T11:14:27.799Z,48.3535
2023-05-09T11:15:30.337Z,47.8101
2023-05-09T11:16:32.519Z,48.2217
2023-05-09T11:17:34.924Z,48.0632
2023-05-09T11:18:37.274Z,47.5015
2023-05-09T11:19:39.568Z,47.7679
2023-05-09T11:20:41.978Z,48.1474
2023-05-09T11:21:44.276Z,47.8256
2023-05-09T11:22:46.632Z,47.7723
2023-05-09T11:23:48.931Z,49.5692
2023-05-09T11:24:51.281Z,50.2473
2023-05-09T11:25:53.667Z,49.6917
2023-05-09T11:26:56.143Z,49.7284
2023-05-09T11:27:58.346Z,50.0931
2023-05-09T11:29:00.702Z,50.6749
2023-05-09T11:30:03.052Z,50.6821
2023-05-09T11:31:05.489Z,49.2752
2023-05-09T11:32:07.944Z,48.7670
2023-05-09T11:33:10.090Z,49.9929
2023-05-09T11:34:12.410Z,49.6258
2023-05-09T11:35:15.366Z,48.8471
2023-05-09T11:36:17.165Z,49.4817
2023-05-09T11:37:19.554Z,48.6566
2023-05-09T11:38:21.843Z,49.6510
2023-05-09T11:39:24.190Z,49.8061
2023-05-09T11:40:26.505Z,50.1909
2023-05-09T11:41:29.006Z,52.5562
2023-05-09T11:42:31.230Z,51.3570
2023-05-09T11:43:33.609Z,50.5784
2023-05-09T11:44:35.934Z,50.1609
2023-05-09T11:45:38.325Z,50.7729
2023-05-09T11:46:40.658Z,51.7312
2023-05-09T11:47:43.048Z,52.1013
2023-05-09T11:48:45.483Z,51.9758
2023-05-09T11:49:49.964Z,51.6158
2023-05-09T11:50:50.080Z,53.1761
2023-05-09T11:51:52.320Z,54.3350
2023-05-09T11:52:54.700Z,54.0630
2023-05-09T11:53:57.030Z,53.4981
2023-05-09T11:54:59.523Z,54.4022
2023-05-09T11:56:02.160Z,54.2337
2023-05-09T11:57:04.126Z,53.9469
2023-05-09T11:58:06.563Z,54.0075
2023-05-09T11:59:08.766Z,53.4490
2023-05-09T12:00:11.229Z,53.0693
2023-05-09T12:01:13.587Z,51.5353
2023-05-09T12:02:15.871Z,52.0350
2023-05-09T12:03:18.489Z,52.1280
2023-05-09T12:04:20.472Z,50.7994
2023-05-09T12:05:23.093Z,49.6318
2023-05-09T12:06:26.254Z,49.9789
2023-05-09T12:07:27.530Z,50.2390
2023-05-09T12:08:29.938Z,51.1142
2023-05-09T12:09:32.199Z,51.3494
2023-05-09T12:10:34.542Z,51.1731
2023-05-09T12:11:37.189Z,51.0308
2023-05-09T12:12:39.284Z,50.9768
2023-05-09T12:13:41.594Z,51.2272
2023-05-09T12:14:44.855Z,52.1548
2023-05-09T12:15:46.373Z,51.7296
2023-05-09T12:16:48.674Z,53.2368
2023-05-09T12:17:52.103Z,52.2011
2023-05-09T12:18:53.333Z,52.3565
2023-05-09T12:19:55.635Z,52.3774
2023-05-09T12:20:57.985Z,51.3156
2023-05-09T12:22:00.321Z,51.1790
2023-05-09T12:23:02.697Z,50.9691
2023-05-09T12:24:05.044Z,49.9335
2023-05-09T12:25:07.447Z,49.4036
2023-05-09T12:26:09.724Z,49.3655
2023-05-09T12:27:12.209Z,49.6000
2023-05-09T12:28:14.840Z,49.5562
2023-05-09T12:29:17.089Z,50.7812
2023-05-09T12:30:19.172Z,50.5999
2023-05-09T12:31:21.541Z,50.4513
2023-05-09T12:32:23.801Z,49.6249
2023-05-09T12:33:26.828Z,49.9649